Accueil
METAR-TAF:

METAR-TAF

Aéroports :

Aéroport international de Bilbao

Bilbao, Espagne

latitude: 43-18N, longitude: 002-56W, altitude: 42 m

Observation

Le bulletin a été fait il y a 22 minutes, à 15:00 UTC
Vent 5 kt de ouest, variant entre sud-ouest et nord-ouest
Température 9°C
Humidité 66%
Pression 1031 hPa
Visibilité 10 km ou plus
Nuages épars à une hauteur de 3000 ft

METAR: LEBB 221500Z 28005KT 230V320 9999 SCT030 09/03 Q1031 NOSIG

Heure: 16:22 (15:22 UTC)

Prévision

Le bulletin a été fait il y a 4 heures et 22 minutes, à 11:00 UTC
Prévision valable du 22 à 12 UTC au 23 à 12 UTC
Vent 5 kt de direction variable
Visibilité 10 km ou plus
Quelques nuages à une hauteur de 4000 ft
Probabilité 30% :
Temporairement
du 22 à 13 UTC au 22 à 18 UTC
Vent 10 kt de nord

TAF: LEBB 221100Z 2212/2312 VRB05KT 9999 FEW040 TX09/2214Z TNM01/2306Z PROB30 TEMPO 2213/2218 36010KT

Observations et prévisions météorologiques de plus de 4000 aéroports (messages METAR et TAF).

Les stations disponibles sont représentées par des disques jaunes et rouges sur la carte.

Passer la souris dessus pour voir le nom de la station.

Cliquer dessus pour voir les observations et prévisions météorologiques.

Pour changer de carte: cliquez sur les boutons verts avec une croix noire pour zoomer, sur le bouton vert avec un tiret pour effectuer un zoom arrière, ou sur les flèches vertes pour les cartes adjacentes.


METAR-TAF: